sensor_id;sensor_type;location;lat;lon;timestamp;temperature;humidity
26907;DHT22;14472;56.880;16.658;2023-05-07T00:00:20;5.60;1.00
26907;DHT22;14472;56.880;16.658;2023-05-07T00:02:47;5.60;1.00
26907;DHT22;14472;56.880;16.658;2023-05-07T00:05:12;5.50;1.00
26907;DHT22;14472;56.880;16.658;2023-05-07T00:07:38;5.50;1.00
26907;DHT22;14472;56.880;16.658;2023-05-07T00:10:05;5.60;1.00
26907;DHT22;14472;56.880;16.658;2023-05-07T00:12:32;5.50;1.00
26907;DHT22;14472;56.880;16.658;2023-05-07T00:15:01;5.50;1.00
26907;DHT22;14472;56.880;16.658;2023-05-07T00:17:27;5.50;1.00
26907;DHT22;14472;56.880;16.658;2023-05-07T00:19:52;5.50;1.00
26907;DHT22;14472;56.880;16.658;2023-05-07T00:22:18;5.50;1.00
26907;DHT22;14472;56.880;16.658;2023-05-07T00:24:44;5.40;1.00
26907;DHT22;14472;56.880;16.658;2023-05-07T00:27:10;5.40;1.00
26907;DHT22;14472;56.880;16.658;2023-05-07T00:29:36;5.40;1.00
26907;DHT22;14472;56.880;16.658;2023-05-07T00:32:02;5.40;1.00
26907;DHT22;14472;56.880;16.658;2023-05-07T00:34:28;5.40;1.00
26907;DHT22;14472;56.880;16.658;2023-05-07T00:36:56;5.40;1.00
26907;DHT22;14472;56.880;16.658;2023-05-07T00:39:22;5.30;1.00
26907;DHT22;14472;56.880;16.658;2023-05-07T00:41:51;5.20;1.00
26907;DHT22;14472;56.880;16.658;2023-05-07T00:44:16;5.20;1.00
26907;DHT22;14472;56.880;16.658;2023-05-07T00:46:43;5.20;1.00
26907;DHT22;14472;56.880;16.658;2023-05-07T00:49:10;5.20;1.00
26907;DHT22;14472;56.880;16.658;2023-05-07T00:51:36;5.10;1.00
26907;DHT22;14472;56.880;16.658;2023-05-07T00:54:02;5.10;1.00
26907;DHT22;14472;56.880;16.658;2023-05-07T00:56:28;5.10;1.00
26907;DHT22;14472;56.880;16.658;2023-05-07T00:58:57;5.10;1.00
26907;DHT22;14472;56.880;16.658;2023-05-07T01:01:23;5.00;1.00
26907;DHT22;14472;56.880;16.658;2023-05-07T01:03:49;5.00;1.00
26907;DHT22;14472;56.880;16.658;2023-05-07T01:06:18;4.90;1.00
26907;DHT22;14472;56.880;16.658;2023-05-07T01:08:45;4.90;1.00
26907;DHT22;14472;56.880;16.658;2023-05-07T01:11:11;4.90;1.00
26907;DHT22;14472;56.880;16.658;2023-05-07T01:13:38;4.90;1.00
26907;DHT22;14472;56.880;16.658;2023-05-07T01:16:10;4.90;1.00
26907;DHT22;14472;56.880;16.658;2023-05-07T01:18:37;4.90;1.00
26907;DHT22;14472;56.880;16.658;2023-05-07T01:21:05;4.90;1.00
26907;DHT22;14472;56.880;16.658;2023-05-07T01:23:31;4.80;1.00
26907;DHT22;14472;56.880;16.658;2023-05-07T01:25:57;4.90;1.00
26907;DHT22;14472;56.880;16.658;2023-05-07T01:28:23;4.90;1.00
26907;DHT22;14472;56.880;16.658;2023-05-07T01:30:58;4.90;1.00
26907;DHT22;14472;56.880;16.658;2023-05-07T01:33:28;4.90;1.00
26907;DHT22;14472;56.880;16.658;2023-05-07T01:35:58;4.90;1.00
26907;DHT22;14472;56.880;16.658;2023-05-07T01:38:28;4.90;1.00
26907;DHT22;14472;56.880;16.658;2023-05-07T01:40:55;4.90;1.00
26907;DHT22;14472;56.880;16.658;2023-05-07T01:43:21;4.90;1.00
26907;DHT22;14472;56.880;16.658;2023-05-07T01:45:47;4.90;1.00
26907;DHT22;14472;56.880;16.658;2023-05-07T01:48:15;5.00;1.00
26907;DHT22;14472;56.880;16.658;2023-05-07T01:50:42;5.00;1.00
26907;DHT22;14472;56.880;16.658;2023-05-07T01:53:08;5.00;1.00
26907;DHT22;14472;56.880;16.658;2023-05-07T01:55:34;5.00;1.00
26907;DHT22;14472;56.880;16.658;2023-05-07T01:58:02;5.00;1.00
26907;DHT22;14472;56.880;16.658;2023-05-07T02:00:28;4.90;1.00
26907;DHT22;14472;56.880;16.658;2023-05-07T02:02:54;5.00;1.00
26907;DHT22;14472;56.880;16.658;2023-05-07T02:05:20;5.00;1.00
26907;DHT22;14472;56.880;16.658;2023-05-07T02:07:46;5.00;1.00
26907;DHT22;14472;56.880;16.658;2023-05-07T02:10:12;4.90;1.00
26907;DHT22;14472;56.880;16.658;2023-05-07T02:12:37;4.90;1.00
26907;DHT22;14472;56.880;16.658;2023-05-07T02:15:03;4.80;1.00
26907;DHT22;14472;56.880;16.658;2023-05-07T02:17:29;4.80;1.00
26907;DHT22;14472;56.880;16.658;2023-05-07T02:19:57;4.80;1.00
26907;DHT22;14472;56.880;16.658;2023-05-07T02:22:23;4.80;1.00
26907;DHT22;14472;56.880;16.658;2023-05-07T02:24:48;4.80;1.00
26907;DHT22;14472;56.880;16.658;2023-05-07T02:27:14;4.80;1.00
26907;DHT22;14472;56.880;16.658;2023-05-07T02:29:40;4.80;1.00
26907;DHT22;14472;56.880;16.658;2023-05-07T02:32:06;4.80;1.00
26907;DHT22;14472;56.880;16.658;2023-05-07T02:34:32;4.80;1.00
26907;DHT22;14472;56.880;16.658;2023-05-07T02:36:57;4.80;1.00
26907;DHT22;14472;56.880;16.658;2023-05-07T02:39:23;4.90;1.00
26907;DHT22;14472;56.880;16.658;2023-05-07T02:41:49;4.90;1.00
26907;DHT22;14472;56.880;16.658;2023-05-07T02:44:14;4.90;1.00
26907;DHT22;14472;56.880;16.658;2023-05-07T02:46:40;4.90;1.00
26907;DHT22;14472;56.880;16.658;2023-05-07T02:49:06;4.90;1.00
26907;DHT22;14472;56.880;16.658;2023-05-07T02:51:32;4.80;1.00
26907;DHT22;14472;56.880;16.658;2023-05-07T02:53:57;4.80;1.00
26907;DHT22;14472;56.880;16.658;2023-05-07T02:56:26;4.80;1.00
26907;DHT22;14472;56.880;16.658;2023-05-07T02:58:51;4.80;1.00
26907;DHT22;14472;56.880;16.658;2023-05-07T03:01:17;4.80;1.00
26907;DHT22;14472;56.880;16.658;2023-05-07T03:03:44;4.80;1.00
26907;DHT22;14472;56.880;16.658;2023-05-07T03:06:10;4.80;1.00
26907;DHT22;14472;56.880;16.658;2023-05-07T03:08:35;4.80;1.00
26907;DHT22;14472;56.880;16.658;2023-05-07T03:11:02;4.80;1.00
26907;DHT22;14472;56.880;16.658;2023-05-07T03:13:28;4.80;1.00
26907;DHT22;14472;56.880;16.658;2023-05-07T03:15:54;4.80;1.00
26907;DHT22;14472;56.880;16.658;2023-05-07T03:18:19;4.80;1.00
26907;DHT22;14472;56.880;16.658;2023-05-07T03:20:47;4.80;1.00
26907;DHT22;14472;56.880;16.658;2023-05-07T03:23:13;4.80;1.00
26907;DHT22;14472;56.880;16.658;2023-05-07T03:25:39;4.80;1.00
26907;DHT22;14472;56.880;16.658;2023-05-07T03:28:04;4.80;4.60
26907;DHT22;14472;56.880;16.658;2023-05-07T03:30:31;4.90;14.00
26907;DHT22;14472;56.880;16.658;2023-05-07T03:32:56;4.90;19.20
26907;DHT22;14472;56.880;16.658;2023-05-07T03:35:22;5.00;24.50
26907;DHT22;14472;56.880;16.658;2023-05-07T03:37:48;5.00;23.80
26907;DHT22;14472;56.880;16.658;2023-05-07T03:40:13;5.10;21.10
26907;DHT22;14472;56.880;16.658;2023-05-07T03:42:39;5.00;18.10
26907;DHT22;14472;56.880;16.658;2023-05-07T03:45:05;5.10;20.80
26907;DHT22;14472;56.880;16.658;2023-05-07T03:47:31;5.10;21.50
26907;DHT22;14472;56.880;16.658;2023-05-07T03:49:57;5.10;24.50
26907;DHT22;14472;56.880;16.658;2023-05-07T03:52:23;5.20;25.20
26907;DHT22;14472;56.880;16.658;2023-05-07T03:54:54;5.20;23.20
26907;DHT22;14472;56.880;16.658;2023-05-07T03:57:20;5.20;19.40
26907;DHT22;14472;56.880;16.658;2023-05-07T03:59:46;5.30;21.20
26907;DHT22;14472;56.880;16.658;2023-05-07T04:02:11;5.30;27.40
26907;DHT22;14472;56.880;16.658;2023-05-07T04:04:37;5.40;42.20
26907;DHT22;14472;56.880;16.658;2023-05-07T04:07:03;5.50;57.60
26907;DHT22;14472;56.880;16.658;2023-05-07T04:09:29;5.60;89.60
26907;DHT22;14472;56.880;16.658;2023-05-07T04:11:55;5.70;99.90
26907;DHT22;14472;56.880;16.658;2023-05-07T04:14:21;5.80;99.90
26907;DHT22;14472;56.880;16.658;2023-05-07T04:16:47;5.90;99.90
26907;DHT22;14472;56.880;16.658;2023-05-07T04:19:12;6.10;99.90
26907;DHT22;14472;56.880;16.658;2023-05-07T04:21:38;6.10;99.90
26907;DHT22;14472;56.880;16.658;2023-05-07T04:24:04;6.30;99.90
26907;DHT22;14472;56.880;16.658;2023-05-07T04:26:30;6.40;99.90
26907;DHT22;14472;56.880;16.658;2023-05-07T04:28:57;6.40;99.90
26907;DHT22;14472;56.880;16.658;2023-05-07T04:31:24;6.50;99.90
26907;DHT22;14472;56.880;16.658;2023-05-07T04:33:50;6.60;99.90
26907;DHT22;14472;56.880;16.658;2023-05-07T04:36:17;6.70;99.90
26907;DHT22;14472;56.880;16.658;2023-05-07T04:38:43;6.80;99.90
26907;DHT22;14472;56.880;16.658;2023-05-07T04:41:09;6.90;99.90
26907;DHT22;14472;56.880;16.658;2023-05-07T04:43:35;6.90;99.90
26907;DHT22;14472;56.880;16.658;2023-05-07T04:46:01;7.00;99.90
26907;DHT22;14472;56.880;16.658;2023-05-07T04:48:27;7.10;99.90
26907;DHT22;14472;56.880;16.658;2023-05-07T04:50:52;7.10;99.90
26907;DHT22;14472;56.880;16.658;2023-05-07T04:53:18;7.20;99.90
26907;DHT22;14472;56.880;16.658;2023-05-07T04:55:45;7.20;99.90
26907;DHT22;14472;56.880;16.658;2023-05-07T04:58:11;7.30;99.90
26907;DHT22;14472;56.880;16.658;2023-05-07T05:00:38;7.30;99.90
26907;DHT22;14472;56.880;16.658;2023-05-07T05:03:05;7.40;99.90
26907;DHT22;14472;56.880;16.658;2023-05-07T05:05:31;7.50;99.90
26907;DHT22;14472;56.880;16.658;2023-05-07T05:07:57;7.60;99.90
26907;DHT22;14472;56.880;16.658;2023-05-07T05:10:23;7.60;99.90
26907;DHT22;14472;56.880;16.658;2023-05-07T05:12:48;7.60;99.90
26907;DHT22;14472;56.880;16.658;2023-05-07T05:15:14;7.70;99.90
26907;DHT22;14472;56.880;16.658;2023-05-07T05:17:40;7.80;99.90
26907;DHT22;14472;56.880;16.658;2023-05-07T05:20:06;7.90;99.90
26907;DHT22;14472;56.880;16.658;2023-05-07T05:22:32;7.90;99.90
26907;DHT22;14472;56.880;16.658;2023-05-07T05:24:58;8.00;99.90
26907;DHT22;14472;56.880;16.658;2023-05-07T05:27:24;8.10;98.70
26907;DHT22;14472;56.880;16.658;2023-05-07T05:29:50;8.20;93.00
26907;DHT22;14472;56.880;16.658;2023-05-07T05:32:15;8.20;79.20
26907;DHT22;14472;56.880;16.658;2023-05-07T05:34:41;8.20;57.80
26907;DHT22;14472;56.880;16.658;2023-05-07T05:37:07;8.20;49.70
26907;DHT22;14472;56.880;16.658;2023-05-07T05:39:32;8.30;43.30
26907;DHT22;14472;56.880;16.658;2023-05-07T05:41:58;8.30;31.80
26907;DHT22;14472;56.880;16.658;2023-05-07T05:44:24;8.40;23.90
26907;DHT22;14472;56.880;16.658;2023-05-07T05:46:50;8.40;18.20
26907;DHT22;14472;56.880;16.658;2023-05-07T05:49:16;8.50;9.70
26907;DHT22;14472;56.880;16.658;2023-05-07T05:51:42;8.50;7.30
26907;DHT22;14472;56.880;16.658;2023-05-07T05:54:08;8.60;1.60
26907;DHT22;14472;56.880;16.658;2023-05-07T05:56:34;8.60;1.00
26907;DHT22;14472;56.880;16.658;2023-05-07T05:58:59;8.70;1.00
26907;DHT22;14472;56.880;16.658;2023-05-07T06:01:25;8.80;1.00
26907;DHT22;14472;56.880;16.658;2023-05-07T06:03:51;8.80;1.00
26907;DHT22;14472;56.880;16.658;2023-05-07T06:06:17;8.80;1.00
26907;DHT22;14472;56.880;16.658;2023-05-07T06:08:42;8.90;1.00
26907;DHT22;14472;56.880;16.658;2023-05-07T06:11:08;9.00;1.00
26907;DHT22;14472;56.880;16.658;2023-05-07T06:13:34;9.00;1.00
26907;DHT22;14472;56.880;16.658;2023-05-07T06:16:00;9.10;1.00
26907;DHT22;14472;56.880;16.658;2023-05-07T06:18:25;9.10;1.00
26907;DHT22;14472;56.880;16.658;2023-05-07T06:20:52;9.10;1.00
26907;DHT22;14472;56.880;16.658;2023-05-07T06:23:18;9.20;1.00
26907;DHT22;14472;56.880;16.658;2023-05-07T06:25:50;9.20;1.00
26907;DHT22;14472;56.880;16.658;2023-05-07T06:28:16;9.30;1.00
26907;DHT22;14472;56.880;16.658;2023-05-07T06:30:42;9.40;1.00
26907;DHT22;14472;56.880;16.658;2023-05-07T06:33:08;9.50;1.00
26907;DHT22;14472;56.880;16.658;2023-05-07T06:35:33;9.50;1.00
26907;DHT22;14472;56.880;16.658;2023-05-07T06:38:00;9.50;1.00
26907;DHT22;14472;56.880;16.658;2023-05-07T06:40:26;9.60;1.00
26907;DHT22;14472;56.880;16.658;2023-05-07T06:42:52;9.70;1.00
26907;DHT22;14472;56.880;16.658;2023-05-07T06:45:18;9.70;1.00
26907;DHT22;14472;56.880;16.658;2023-05-07T06:47:44;9.80;1.00
26907;DHT22;14472;56.880;16.658;2023-05-07T06:50:10;9.90;1.00
26907;DHT22;14472;56.880;16.658;2023-05-07T06:52:36;10.00;1.00
26907;DHT22;14472;56.880;16.658;2023-05-07T06:55:02;10.00;1.00
26907;DHT22;14472;56.880;16.658;2023-05-07T06:57:27;10.10;1.00
26907;DHT22;14472;56.880;16.658;2023-05-07T06:59:53;10.20;1.00
26907;DHT22;14472;56.880;16.658;2023-05-07T07:02:19;10.20;1.00
26907;DHT22;14472;56.880;16.658;2023-05-07T07:04:45;10.30;1.00
26907;DHT22;14472;56.880;16.658;2023-05-07T07:07:10;10.40;1.00
26907;DHT22;14472;56.880;16.658;2023-05-07T07:09:36;10.40;1.00
26907;DHT22;14472;56.880;16.658;2023-05-07T07:12:02;10.50;1.00
26907;DHT22;14472;56.880;16.658;2023-05-07T07:14:28;10.60;1.00
26907;DHT22;14472;56.880;16.658;2023-05-07T07:16:53;10.70;1.00
26907;DHT22;14472;56.880;16.658;2023-05-07T07:19:19;10.80;1.00
26907;DHT22;14472;56.880;16.658;2023-05-07T07:21:46;10.80;1.00
26907;DHT22;14472;56.880;16.658;2023-05-07T07:24:12;10.90;1.00
26907;DHT22;14472;56.880;16.658;2023-05-07T07:26:38;10.90;1.00
26907;DHT22;14472;56.880;16.658;2023-05-07T07:29:05;11.00;1.00
26907;DHT22;14472;56.880;16.658;2023-05-07T07:31:32;11.10;1.00
26907;DHT22;14472;56.880;16.658;2023-05-07T07:33:58;11.10;1.00
26907;DHT22;14472;56.880;16.658;2023-05-07T07:36:23;11.20;1.00
26907;DHT22;14472;56.880;16.658;2023-05-07T07:38:49;11.30;1.00
26907;DHT22;14472;56.880;16.658;2023-05-07T07:41:15;11.40;1.00
26907;DHT22;14472;56.880;16.658;2023-05-07T07:43:40;11.40;1.00
26907;DHT22;14472;56.880;16.658;2023-05-07T07:46:06;11.50;1.00
26907;DHT22;14472;56.880;16.658;2023-05-07T07:48:32;11.60;1.00
26907;DHT22;14472;56.880;16.658;2023-05-07T07:50:58;11.70;1.00
26907;DHT22;14472;56.880;16.658;2023-05-07T07:53:24;11.80;1.00
26907;DHT22;14472;56.880;16.658;2023-05-07T07:55:50;11.90;1.00
26907;DHT22;14472;56.880;16.658;2023-05-07T07:58:16;11.90;1.00
26907;DHT22;14472;56.880;16.658;2023-05-07T08:00:42;12.00;1.00
26907;DHT22;14472;56.880;16.658;2023-05-07T08:03:11;12.10;1.00
26907;DHT22;14472;56.880;16.658;2023-05-07T08:05:36;12.20;1.00
26907;DHT22;14472;56.880;16.658;2023-05-07T08:08:04;12.30;1.00
26907;DHT22;14472;56.880;16.658;2023-05-07T08:10:30;12.30;1.00
26907;DHT22;14472;56.880;16.658;2023-05-07T08:12:59;12.40;1.00
26907;DHT22;14472;56.880;16.658;2023-05-07T08:15:25;12.40;1.00
26907;DHT22;14472;56.880;16.658;2023-05-07T08:17:50;12.50;1.00
26907;DHT22;14472;56.880;16.658;2023-05-07T08:20:16;12.50;1.00
26907;DHT22;14472;56.880;16.658;2023-05-07T08:22:42;12.60;1.00
26907;DHT22;14472;56.880;16.658;2023-05-07T08:25:08;12.70;1.00
26907;DHT22;14472;56.880;16.658;2023-05-07T08:27:34;12.80;1.00
26907;DHT22;14472;56.880;16.658;2023-05-07T08:29:59;12.80;1.00
26907;DHT22;14472;56.880;16.658;2023-05-07T08:32:25;12.80;1.00
26907;DHT22;14472;56.880;16.658;2023-05-07T08:34:51;12.80;1.00
26907;DHT22;14472;56.880;16.658;2023-05-07T08:37:17;12.90;1.00
26907;DHT22;14472;56.880;16.658;2023-05-07T08:39:42;13.00;1.00
26907;DHT22;14472;56.880;16.658;2023-05-07T08:42:09;13.10;1.00
26907;DHT22;14472;56.880;16.658;2023-05-07T08:44:38;13.10;1.00
26907;DHT22;14472;56.880;16.658;2023-05-07T08:47:07;13.20;1.00
26907;DHT22;14472;56.880;16.658;2023-05-07T08:49:33;13.20;1.00
26907;DHT22;14472;56.880;16.658;2023-05-07T08:52:00;13.30;1.00
26907;DHT22;14472;56.880;16.658;2023-05-07T08:54:26;13.40;1.00
26907;DHT22;14472;56.880;16.658;2023-05-07T08:56:53;13.30;1.00
26907;DHT22;14472;56.880;16.658;2023-05-07T08:59:18;13.40;1.00
26907;DHT22;14472;56.880;16.658;2023-05-07T09:01:44;13.40;1.00
26907;DHT22;14472;56.880;16.658;2023-05-07T09:04:10;13.50;1.00
26907;DHT22;14472;56.880;16.658;2023-05-07T09:06:38;13.50;1.00
26907;DHT22;14472;56.880;16.658;2023-05-07T09:09:07;13.70;1.00
26907;DHT22;14472;56.880;16.658;2023-05-07T09:11:33;13.70;1.00
26907;DHT22;14472;56.880;16.658;2023-05-07T09:13:59;13.70;1.00
26907;DHT22;14472;56.880;16.658;2023-05-07T09:16:28;13.70;1.00
26907;DHT22;14472;56.880;16.658;2023-05-07T09:18:56;13.80;1.00
26907;DHT22;14472;56.880;16.658;2023-05-07T09:21:22;13.90;1.00
26907;DHT22;14472;56.880;16.658;2023-05-07T09:23:50;13.90;1.00
26907;DHT22;14472;56.880;16.658;2023-05-07T09:26:16;13.90;1.00
26907;DHT22;14472;56.880;16.658;2023-05-07T09:28:43;13.90;1.00
26907;DHT22;14472;56.880;16.658;2023-05-07T09:31:10;13.90;1.00
26907;DHT22;14472;56.880;16.658;2023-05-07T09:33:36;14.00;1.00
26907;DHT22;14472;56.880;16.658;2023-05-07T09:36:06;14.00;1.00
26907;DHT22;14472;56.880;16.658;2023-05-07T09:38:33;14.10;1.00
26907;DHT22;14472;56.880;16.658;2023-05-07T09:41:10;14.00;1.00
26907;DHT22;14472;56.880;16.658;2023-05-07T09:43:37;14.10;1.00
26907;DHT22;14472;56.880;16.658;2023-05-07T09:46:11;14.10;1.00
26907;DHT22;14472;56.880;16.658;2023-05-07T09:48:39;14.20;1.00
26907;DHT22;14472;56.880;16.658;2023-05-07T09:51:28;14.20;1.00
26907;DHT22;14472;56.880;16.658;2023-05-07T09:53:56;14.20;1.00
26907;DHT22;14472;56.880;16.658;2023-05-07T09:56:23;14.20;1.00
26907;DHT22;14472;56.880;16.658;2023-05-07T09:58:51;14.30;1.00
26907;DHT22;14472;56.880;16.658;2023-05-07T10:01:18;14.30;1.00
26907;DHT22;14472;56.880;16.658;2023-05-07T10:03:48;14.30;1.00
26907;DHT22;14472;56.880;16.658;2023-05-07T10:06:15;14.40;1.00
26907;DHT22;14472;56.880;16.658;2023-05-07T10:08:43;14.40;1.00
26907;DHT22;14472;56.880;16.658;2023-05-07T10:11:09;14.30;1.00
26907;DHT22;14472;56.880;16.658;2023-05-07T10:13:35;14.30;1.00
26907;DHT22;14472;56.880;16.658;2023-05-07T10:16:05;14.40;1.00
26907;DHT22;14472;56.880;16.658;2023-05-07T10:18:32;14.40;1.00
26907;DHT22;14472;56.880;16.658;2023-05-07T10:21:10;14.40;1.00
26907;DHT22;14472;56.880;16.658;2023-05-07T10:23:36;14.40;1.00
26907;DHT22;14472;56.880;16.658;2023-05-07T10:26:06;14.40;1.00
26907;DHT22;14472;56.880;16.658;2023-05-07T10:28:38;14.40;1.00
26907;DHT22;14472;56.880;16.658;2023-05-07T10:33:56;14.40;1.00
26907;DHT22;14472;56.880;16.658;2023-05-07T10:36:23;14.40;1.00
26907;DHT22;14472;56.880;16.658;2023-05-07T10:38:50;14.50;1.00
26907;DHT22;14472;56.880;16.658;2023-05-07T10:41:16;14.40;1.00
26907;DHT22;14472;56.880;16.658;2023-05-07T10:43:45;14.40;1.00
26907;DHT22;14472;56.880;16.658;2023-05-07T10:46:20;14.40;1.00
26907;DHT22;14472;56.880;16.658;2023-05-07T10:51:29;14.40;1.00
26907;DHT22;14472;56.880;16.658;2023-05-07T10:56:42;14.50;1.00
26907;DHT22;14472;56.880;16.658;2023-05-07T10:59:33;14.60;1.00
26907;DHT22;14472;56.880;16.658;2023-05-07T11:02:01;14.60;1.00
26907;DHT22;14472;56.880;16.658;2023-05-07T11:04:32;14.50;1.00
26907;DHT22;14472;56.880;16.658;2023-05-07T11:09:54;14.60;1.00
26907;DHT22;14472;56.880;16.658;2023-05-07T11:15:10;14.70;1.00
26907;DHT22;14472;56.880;16.658;2023-05-07T11:17:55;14.60;1.00
26907;DHT22;14472;56.880;16.658;2023-05-07T11:20:59;14.60;1.00
26907;DHT22;14472;56.880;16.658;2023-05-07T11:26:13;14.60;1.00
26907;DHT22;14472;56.880;16.658;2023-05-07T11:28:43;14.60;1.00
26907;DHT22;14472;56.880;16.658;2023-05-07T11:34:31;14.60;1.00
26907;DHT22;14472;56.880;16.658;2023-05-07T11:36:58;14.70;1.00
26907;DHT22;14472;56.880;16.658;2023-05-07T11:40:05;14.70;1.00
26907;DHT22;14472;56.880;16.658;2023-05-07T11:45:37;14.70;1.00
26907;DHT22;14472;56.880;16.658;2023-05-07T11:48:02;14.70;1.00
26907;DHT22;14472;56.880;16.658;2023-05-07T11:50:28;14.80;1.00
26907;DHT22;14472;56.880;16.658;2023-05-07T11:52:57;14.70;1.00
26907;DHT22;14472;56.880;16.658;2023-05-07T11:55:27;14.60;1.00
26907;DHT22;14472;56.880;16.658;2023-05-07T11:57:52;14.70;1.00
26907;DHT22;14472;56.880;16.658;2023-05-07T12:00:18;14.70;1.00
26907;DHT22;14472;56.880;16.658;2023-05-07T12:03:12;14.60;1.00
26907;DHT22;14472;56.880;16.658;2023-05-07T12:05:40;14.70;1.00
26907;DHT22;14472;56.880;16.658;2023-05-07T12:08:07;14.70;1.00
26907;DHT22;14472;56.880;16.658;2023-05-07T12:10:33;14.60;1.00
26907;DHT22;14472;56.880;16.658;2023-05-07T12:13:00;14.70;1.00
26907;DHT22;14472;56.880;16.658;2023-05-07T12:15:27;14.70;1.00
26907;DHT22;14472;56.880;16.658;2023-05-07T12:17:53;14.70;1.00
26907;DHT22;14472;56.880;16.658;2023-05-07T12:20:20;14.70;1.00
26907;DHT22;14472;56.880;16.658;2023-05-07T12:22:46;14.70;1.00
26907;DHT22;14472;56.880;16.658;2023-05-07T12:25:19;14.80;1.00
26907;DHT22;14472;56.880;16.658;2023-05-07T12:27:52;14.80;1.00
26907;DHT22;14472;56.880;16.658;2023-05-07T12:30:18;14.80;1.00
26907;DHT22;14472;56.880;16.658;2023-05-07T12:32:45;14.80;1.00
26907;DHT22;14472;56.880;16.658;2023-05-07T12:35:10;14.80;1.00
26907;DHT22;14472;56.880;16.658;2023-05-07T12:37:43;14.70;1.00
26907;DHT22;14472;56.880;16.658;2023-05-07T12:40:10;14.80;1.00
26907;DHT22;14472;56.880;16.658;2023-05-07T12:42:40;14.70;1.00
26907;DHT22;14472;56.880;16.658;2023-05-07T12:45:13;14.70;1.00
26907;DHT22;14472;56.880;16.658;2023-05-07T12:47:44;14.70;1.00
26907;DHT22;14472;56.880;16.658;2023-05-07T12:50:10;14.70;1.00
26907;DHT22;14472;56.880;16.658;2023-05-07T12:52:55;14.80;1.00
26907;DHT22;14472;56.880;16.658;2023-05-07T12:55:21;15.00;1.00
26907;DHT22;14472;56.880;16.658;2023-05-07T12:57:50;14.90;1.00
26907;DHT22;14472;56.880;16.658;2023-05-07T13:00:17;14.90;1.00
26907;DHT22;14472;56.880;16.658;2023-05-07T13:02:43;14.90;1.00
26907;DHT22;14472;56.880;16.658;2023-05-07T13:05:12;14.90;1.00
26907;DHT22;14472;56.880;16.658;2023-05-07T13:07:39;15.00;1.00
26907;DHT22;14472;56.880;16.658;2023-05-07T13:10:07;15.00;1.00
26907;DHT22;14472;56.880;16.658;2023-05-07T13:12:36;15.00;1.00
26907;DHT22;14472;56.880;16.658;2023-05-07T13:15:02;14.90;1.00
26907;DHT22;14472;56.880;16.658;2023-05-07T13:17:28;14.90;1.00
26907;DHT22;14472;56.880;16.658;2023-05-07T13:19:56;14.90;1.00
26907;DHT22;14472;56.880;16.658;2023-05-07T13:22:21;15.00;1.00
26907;DHT22;14472;56.880;16.658;2023-05-07T13:24:47;15.00;1.00
26907;DHT22;14472;56.880;16.658;2023-05-07T13:27:13;15.00;1.00
26907;DHT22;14472;56.880;16.658;2023-05-07T13:29:38;14.90;1.00
26907;DHT22;14472;56.880;16.658;2023-05-07T13:32:04;15.00;1.00
26907;DHT22;14472;56.880;16.658;2023-05-07T13:34:30;15.00;1.00
26907;DHT22;14472;56.880;16.658;2023-05-07T13:36:55;14.90;1.00
26907;DHT22;14472;56.880;16.658;2023-05-07T13:39:22;14.90;1.00
26907;DHT22;14472;56.880;16.658;2023-05-07T13:41:47;14.90;1.00
26907;DHT22;14472;56.880;16.658;2023-05-07T13:44:13;14.90;1.00
26907;DHT22;14472;56.880;16.658;2023-05-07T13:46:39;14.90;1.00
26907;DHT22;14472;56.880;16.658;2023-05-07T13:49:05;15.00;1.00
26907;DHT22;14472;56.880;16.658;2023-05-07T13:51:30;14.90;1.00
26907;DHT22;14472;56.880;16.658;2023-05-07T13:53:56;14.90;1.00
26907;DHT22;14472;56.880;16.658;2023-05-07T13:56:23;14.90;1.00
26907;DHT22;14472;56.880;16.658;2023-05-07T13:58:49;14.90;1.00
26907;DHT22;14472;56.880;16.658;2023-05-07T14:01:15;14.80;1.00
26907;DHT22;14472;56.880;16.658;2023-05-07T14:03:41;14.90;1.00
26907;DHT22;14472;56.880;16.658;2023-05-07T14:06:06;15.00;1.00
26907;DHT22;14472;56.880;16.658;2023-05-07T14:08:32;15.00;1.00
26907;DHT22;14472;56.880;16.658;2023-05-07T14:10:58;15.00;1.00
26907;DHT22;14472;56.880;16.658;2023-05-07T14:13:23;15.00;1.00
26907;DHT22;14472;56.880;16.658;2023-05-07T14:15:51;14.90;1.00
26907;DHT22;14472;56.880;16.658;2023-05-07T14:18:16;15.00;1.00
26907;DHT22;14472;56.880;16.658;2023-05-07T14:20:42;14.90;1.00
26907;DHT22;14472;56.880;16.658;2023-05-07T14:23:12;14.90;1.00
26907;DHT22;14472;56.880;16.658;2023-05-07T14:25:38;14.90;1.00
26907;DHT22;14472;56.880;16.658;2023-05-07T14:28:03;14.90;1.00
26907;DHT22;14472;56.880;16.658;2023-05-07T14:30:29;14.90;1.00
26907;DHT22;14472;56.880;16.658;2023-05-07T14:32:55;14.80;1.00
26907;DHT22;14472;56.880;16.658;2023-05-07T14:35:24;14.80;1.00
26907;DHT22;14472;56.880;16.658;2023-05-07T14:37:49;14.80;1.00
26907;DHT22;14472;56.880;16.658;2023-05-07T14:40:15;14.80;1.00
26907;DHT22;14472;56.880;16.658;2023-05-07T14:42:41;14.80;1.00
26907;DHT22;14472;56.880;16.658;2023-05-07T14:45:08;14.80;1.00
26907;DHT22;14472;56.880;16.658;2023-05-07T14:47:39;14.80;1.00
26907;DHT22;14472;56.880;16.658;2023-05-07T14:50:09;14.70;1.00
26907;DHT22;14472;56.880;16.658;2023-05-07T14:52:35;14.70;1.00
26907;DHT22;14472;56.880;16.658;2023-05-07T14:55:01;14.70;1.00
26907;DHT22;14472;56.880;16.658;2023-05-07T14:57:26;14.70;1.00
26907;DHT22;14472;56.880;16.658;2023-05-07T14:59:52;14.60;1.00
26907;DHT22;14472;56.880;16.658;2023-05-07T15:02:18;14.60;1.00
26907;DHT22;14472;56.880;16.658;2023-05-07T15:04:44;14.60;1.00
26907;DHT22;14472;56.880;16.658;2023-05-07T15:07:13;14.50;1.00
26907;DHT22;14472;56.880;16.658;2023-05-07T15:09:43;14.50;1.00
26907;DHT22;14472;56.880;16.658;2023-05-07T15:12:09;14.40;1.00
26907;DHT22;14472;56.880;16.658;2023-05-07T15:14:35;14.40;1.00
26907;DHT22;14472;56.880;16.658;2023-05-07T15:17:01;14.30;1.00
26907;DHT22;14472;56.880;16.658;2023-05-07T15:19:26;14.30;1.00
26907;DHT22;14472;56.880;16.658;2023-05-07T15:21:58;14.40;1.00
26907;DHT22;14472;56.880;16.658;2023-05-07T15:24:25;14.40;1.00
26907;DHT22;14472;56.880;16.658;2023-05-07T15:26:52;14.40;1.00
26907;DHT22;14472;56.880;16.658;2023-05-07T15:29:18;14.40;1.00
26907;DHT22;14472;56.880;16.658;2023-05-07T15:31:45;14.30;1.00
26907;DHT22;14472;56.880;16.658;2023-05-07T15:34:11;14.30;1.00
26907;DHT22;14472;56.880;16.658;2023-05-07T15:36:40;14.30;1.00
26907;DHT22;14472;56.880;16.658;2023-05-07T15:39:06;14.20;1.00
26907;DHT22;14472;56.880;16.658;2023-05-07T15:41:32;14.30;1.00
26907;DHT22;14472;56.880;16.658;2023-05-07T15:43:59;14.20;1.00
26907;DHT22;14472;56.880;16.658;2023-05-07T15:46:26;14.20;1.00
26907;DHT22;14472;56.880;16.658;2023-05-07T15:48:55;14.10;1.00
26907;DHT22;14472;56.880;16.658;2023-05-07T15:51:22;14.10;1.00
26907;DHT22;14472;56.880;16.658;2023-05-07T15:53:49;14.10;1.00
26907;DHT22;14472;56.880;16.658;2023-05-07T15:56:23;14.10;1.00